sensor_id;sensor_type;location;lat;lon;timestamp;P1;durP1;ratioP1;P2;durP2;ratioP2
51298;SDS011;37382;45.192;9.790;2023-12-20T00:00:37;30.05;;;22.45;;
51298;SDS011;37382;45.192;9.790;2023-12-20T00:03:05;32.85;;;22.17;;
51298;SDS011;37382;45.192;9.790;2023-12-20T00:05:32;29.75;;;21.35;;
51298;SDS011;37382;45.192;9.790;2023-12-20T00:08:00;26.17;;;19.60;;
51298;SDS011;37382;45.192;9.790;2023-12-20T00:10:28;32.65;;;19.08;;
51298;SDS011;37382;45.192;9.790;2023-12-20T00:12:55;21.55;;;17.83;;
51298;SDS011;37382;45.192;9.790;2023-12-20T00:15:22;21.17;;;17.48;;
51298;SDS011;37382;45.192;9.790;2023-12-20T00:17:50;23.20;;;15.73;;
51298;SDS011;37382;45.192;9.790;2023-12-20T00:20:17;20.70;;;16.10;;
51298;SDS011;37382;45.192;9.790;2023-12-20T00:22:45;21.45;;;16.08;;
51298;SDS011;37382;45.192;9.790;2023-12-20T00:25:12;18.95;;;15.80;;
51298;SDS011;37382;45.192;9.790;2023-12-20T00:27:40;21.15;;;16.33;;
51298;SDS011;37382;45.192;9.790;2023-12-20T00:30:07;24.90;;;17.48;;
51298;SDS011;37382;45.192;9.790;2023-12-20T00:32:35;21.30;;;16.40;;
51298;SDS011;37382;45.192;9.790;2023-12-20T00:35:03;20.10;;;15.13;;
51298;SDS011;37382;45.192;9.790;2023-12-20T00:37:31;19.90;;;15.60;;
51298;SDS011;37382;45.192;9.790;2023-12-20T00:39:58;20.73;;;16.70;;
51298;SDS011;37382;45.192;9.790;2023-12-20T00:42:25;19.08;;;14.95;;
51298;SDS011;37382;45.192;9.790;2023-12-20T00:44:54;20.83;;;16.75;;
51298;SDS011;37382;45.192;9.790;2023-12-20T00:47:21;27.23;;;19.30;;
51298;SDS011;37382;45.192;9.790;2023-12-20T00:49:49;28.08;;;18.90;;
51298;SDS011;37382;45.192;9.790;2023-12-20T00:52:16;26.25;;;19.40;;
51298;SDS011;37382;45.192;9.790;2023-12-20T00:54:44;22.55;;;17.83;;
51298;SDS011;37382;45.192;9.790;2023-12-20T00:57:12;29.08;;;18.30;;
51298;SDS011;37382;45.192;9.790;2023-12-20T00:59:39;20.23;;;17.02;;
51298;SDS011;37382;45.192;9.790;2023-12-20T01:02:07;24.73;;;17.48;;
51298;SDS011;37382;45.192;9.790;2023-12-20T01:04:35;24.83;;;17.40;;
51298;SDS011;37382;45.192;9.790;2023-12-20T01:07:03;27.10;;;17.83;;
51298;SDS011;37382;45.192;9.790;2023-12-20T01:09:31;25.50;;;18.23;;
51298;SDS011;37382;45.192;9.790;2023-12-20T01:11:58;24.48;;;18.33;;
51298;SDS011;37382;45.192;9.790;2023-12-20T01:14:25;24.05;;;17.20;;
51298;SDS011;37382;45.192;9.790;2023-12-20T01:16:53;26.15;;;18.27;;
51298;SDS011;37382;45.192;9.790;2023-12-20T01:19:20;22.48;;;17.35;;
51298;SDS011;37382;45.192;9.790;2023-12-20T01:21:48;21.20;;;15.77;;
51298;SDS011;37382;45.192;9.790;2023-12-20T01:24:16;27.88;;;16.88;;
51298;SDS011;37382;45.192;9.790;2023-12-20T01:26:43;36.70;;;16.85;;
51298;SDS011;37382;45.192;9.790;2023-12-20T01:29:11;24.90;;;17.55;;
51298;SDS011;37382;45.192;9.790;2023-12-20T01:31:40;24.05;;;17.38;;
51298;SDS011;37382;45.192;9.790;2023-12-20T01:34:08;26.73;;;18.67;;
51298;SDS011;37382;45.192;9.790;2023-12-20T01:36:35;24.88;;;19.05;;
51298;SDS011;37382;45.192;9.790;2023-12-20T01:39:02;25.10;;;18.35;;
51298;SDS011;37382;45.192;9.790;2023-12-20T01:41:36;26.40;;;19.75;;
51298;SDS011;37382;45.192;9.790;2023-12-20T01:44:03;35.08;;;24.35;;
51298;SDS011;37382;45.192;9.790;2023-12-20T01:46:31;36.78;;;24.38;;
51298;SDS011;37382;45.192;9.790;2023-12-20T01:48:59;36.25;;;24.30;;
51298;SDS011;37382;45.192;9.790;2023-12-20T01:51:26;33.78;;;23.30;;
51298;SDS011;37382;45.192;9.790;2023-12-20T01:53:58;37.80;;;24.95;;
51298;SDS011;37382;45.192;9.790;2023-12-20T01:56:27;37.65;;;24.33;;
51298;SDS011;37382;45.192;9.790;2023-12-20T01:58:56;34.88;;;24.42;;
51298;SDS011;37382;45.192;9.790;2023-12-20T02:01:24;40.33;;;26.83;;
51298;SDS011;37382;45.192;9.790;2023-12-20T02:03:52;36.17;;;25.48;;
51298;SDS011;37382;45.192;9.790;2023-12-20T02:06:19;36.97;;;25.70;;
51298;SDS011;37382;45.192;9.790;2023-12-20T02:08:49;38.33;;;24.17;;
51298;SDS011;37382;45.192;9.790;2023-12-20T02:11:17;38.45;;;25.83;;
51298;SDS011;37382;45.192;9.790;2023-12-20T02:13:45;39.40;;;26.08;;
51298;SDS011;37382;45.192;9.790;2023-12-20T02:16:12;39.90;;;26.75;;
51298;SDS011;37382;45.192;9.790;2023-12-20T02:18:39;39.72;;;27.67;;
51298;SDS011;37382;45.192;9.790;2023-12-20T02:21:11;33.33;;;22.27;;
51298;SDS011;37382;45.192;9.790;2023-12-20T02:26:32;35.67;;;23.67;;
51298;SDS011;37382;45.192;9.790;2023-12-20T02:29:00;37.35;;;25.17;;
51298;SDS011;37382;45.192;9.790;2023-12-20T02:31:29;39.22;;;26.42;;
51298;SDS011;37382;45.192;9.790;2023-12-20T02:33:57;40.72;;;27.95;;
51298;SDS011;37382;45.192;9.790;2023-12-20T02:36:25;45.45;;;27.55;;
51298;SDS011;37382;45.192;9.790;2023-12-20T02:38:52;39.47;;;25.67;;
51298;SDS011;37382;45.192;9.790;2023-12-20T02:41:19;34.95;;;25.27;;
51298;SDS011;37382;45.192;9.790;2023-12-20T02:43:47;37.15;;;23.88;;
51298;SDS011;37382;45.192;9.790;2023-12-20T02:46:14;36.75;;;24.60;;
51298;SDS011;37382;45.192;9.790;2023-12-20T02:48:44;38.55;;;24.80;;
51298;SDS011;37382;45.192;9.790;2023-12-20T02:51:11;36.85;;;24.77;;
51298;SDS011;37382;45.192;9.790;2023-12-20T02:53:38;35.88;;;25.80;;
51298;SDS011;37382;45.192;9.790;2023-12-20T02:56:06;36.15;;;24.73;;
51298;SDS011;37382;45.192;9.790;2023-12-20T02:58:33;33.50;;;24.52;;
51298;SDS011;37382;45.192;9.790;2023-12-20T03:01:01;38.47;;;25.60;;
51298;SDS011;37382;45.192;9.790;2023-12-20T03:03:28;38.97;;;24.90;;
51298;SDS011;37382;45.192;9.790;2023-12-20T03:05:55;36.13;;;25.63;;
51298;SDS011;37382;45.192;9.790;2023-12-20T03:08:23;44.85;;;26.55;;
51298;SDS011;37382;45.192;9.790;2023-12-20T03:10:50;39.05;;;27.48;;
51298;SDS011;37382;45.192;9.790;2023-12-20T03:13:18;40.88;;;27.08;;
51298;SDS011;37382;45.192;9.790;2023-12-20T03:15:45;38.42;;;25.63;;
51298;SDS011;37382;45.192;9.790;2023-12-20T03:18:13;38.70;;;25.30;;
51298;SDS011;37382;45.192;9.790;2023-12-20T03:20:40;41.38;;;27.80;;
51298;SDS011;37382;45.192;9.790;2023-12-20T03:23:09;39.35;;;26.83;;
51298;SDS011;37382;45.192;9.790;2023-12-20T03:25:37;45.63;;;26.95;;
51298;SDS011;37382;45.192;9.790;2023-12-20T03:28:05;42.53;;;28.10;;
51298;SDS011;37382;45.192;9.790;2023-12-20T03:30:32;36.05;;;25.73;;
51298;SDS011;37382;45.192;9.790;2023-12-20T03:33:00;35.95;;;26.42;;
51298;SDS011;37382;45.192;9.790;2023-12-20T03:35:27;39.03;;;26.88;;
51298;SDS011;37382;45.192;9.790;2023-12-20T03:37:54;38.75;;;25.73;;
51298;SDS011;37382;45.192;9.790;2023-12-20T03:40:22;37.72;;;26.77;;
51298;SDS011;37382;45.192;9.790;2023-12-20T03:42:49;40.35;;;26.52;;
51298;SDS011;37382;45.192;9.790;2023-12-20T03:45:17;44.15;;;27.92;;
51298;SDS011;37382;45.192;9.790;2023-12-20T03:47:44;42.83;;;28.20;;
51298;SDS011;37382;45.192;9.790;2023-12-20T03:50:12;41.25;;;27.05;;
51298;SDS011;37382;45.192;9.790;2023-12-20T03:52:39;38.63;;;26.92;;
51298;SDS011;37382;45.192;9.790;2023-12-20T03:55:07;41.03;;;27.80;;
51298;SDS011;37382;45.192;9.790;2023-12-20T03:57:35;42.50;;;27.55;;
51298;SDS011;37382;45.192;9.790;2023-12-20T04:00:02;40.42;;;26.27;;
51298;SDS011;37382;45.192;9.790;2023-12-20T04:02:38;38.35;;;27.13;;
51298;SDS011;37382;45.192;9.790;2023-12-20T04:05:07;42.53;;;26.33;;
51298;SDS011;37382;45.192;9.790;2023-12-20T04:07:36;42.95;;;28.50;;
51298;SDS011;37382;45.192;9.790;2023-12-20T04:10:04;39.97;;;27.08;;
51298;SDS011;37382;45.192;9.790;2023-12-20T04:12:32;40.58;;;27.45;;
51298;SDS011;37382;45.192;9.790;2023-12-20T04:14:59;48.28;;;28.88;;
51298;SDS011;37382;45.192;9.790;2023-12-20T04:17:27;40.58;;;28.30;;
51298;SDS011;37382;45.192;9.790;2023-12-20T04:19:54;44.50;;;28.63;;
51298;SDS011;37382;45.192;9.790;2023-12-20T04:22:22;51.95;;;28.38;;
51298;SDS011;37382;45.192;9.790;2023-12-20T04:24:49;47.92;;;30.00;;
51298;SDS011;37382;45.192;9.790;2023-12-20T04:27:17;53.40;;;29.27;;
51298;SDS011;37382;45.192;9.790;2023-12-20T04:29:44;43.33;;;28.33;;
51298;SDS011;37382;45.192;9.790;2023-12-20T04:32:12;40.70;;;28.80;;
51298;SDS011;37382;45.192;9.790;2023-12-20T04:34:39;47.08;;;28.13;;
51298;SDS011;37382;45.192;9.790;2023-12-20T04:37:06;45.42;;;28.17;;
51298;SDS011;37382;45.192;9.790;2023-12-20T04:39:34;43.90;;;27.63;;
51298;SDS011;37382;45.192;9.790;2023-12-20T04:42:01;40.15;;;27.92;;
51298;SDS011;37382;45.192;9.790;2023-12-20T04:44:29;40.38;;;27.05;;
51298;SDS011;37382;45.192;9.790;2023-12-20T04:46:56;47.63;;;27.48;;
51298;SDS011;37382;45.192;9.790;2023-12-20T04:49:24;42.65;;;27.63;;
51298;SDS011;37382;45.192;9.790;2023-12-20T04:51:52;38.70;;;27.17;;
51298;SDS011;37382;45.192;9.790;2023-12-20T04:54:19;38.83;;;25.77;;
51298;SDS011;37382;45.192;9.790;2023-12-20T04:56:46;38.72;;;25.65;;
51298;SDS011;37382;45.192;9.790;2023-12-20T04:59:14;38.97;;;25.02;;
51298;SDS011;37382;45.192;9.790;2023-12-20T05:01:42;35.90;;;25.77;;
51298;SDS011;37382;45.192;9.790;2023-12-20T05:04:09;37.90;;;23.27;;
51298;SDS011;37382;45.192;9.790;2023-12-20T05:06:37;39.92;;;25.35;;
51298;SDS011;37382;45.192;9.790;2023-12-20T05:09:04;37.22;;;24.58;;
51298;SDS011;37382;45.192;9.790;2023-12-20T05:11:32;36.90;;;24.75;;
51298;SDS011;37382;45.192;9.790;2023-12-20T05:13:59;37.45;;;24.60;;
51298;SDS011;37382;45.192;9.790;2023-12-20T05:16:26;43.50;;;26.23;;
51298;SDS011;37382;45.192;9.790;2023-12-20T05:18:54;38.83;;;24.48;;
51298;SDS011;37382;45.192;9.790;2023-12-20T05:21:22;43.92;;;25.30;;
51298;SDS011;37382;45.192;9.790;2023-12-20T05:23:49;37.47;;;25.85;;
51298;SDS011;37382;45.192;9.790;2023-12-20T05:26:16;41.08;;;25.73;;
51298;SDS011;37382;45.192;9.790;2023-12-20T05:28:44;39.88;;;25.73;;
51298;SDS011;37382;45.192;9.790;2023-12-20T05:31:11;39.22;;;25.77;;
51298;SDS011;37382;45.192;9.790;2023-12-20T05:33:38;39.92;;;26.98;;
51298;SDS011;37382;45.192;9.790;2023-12-20T05:36:06;38.58;;;25.27;;
51298;SDS011;37382;45.192;9.790;2023-12-20T05:41:05;47.05;;;24.52;;
51298;SDS011;37382;45.192;9.790;2023-12-20T05:43:33;39.70;;;26.50;;
51298;SDS011;37382;45.192;9.790;2023-12-20T05:46:00;35.83;;;26.08;;
51298;SDS011;37382;45.192;9.790;2023-12-20T05:48:27;43.97;;;27.02;;
51298;SDS011;37382;45.192;9.790;2023-12-20T05:50:55;49.00;;;29.33;;
51298;SDS011;37382;45.192;9.790;2023-12-20T05:53:22;42.75;;;29.73;;
51298;SDS011;37382;45.192;9.790;2023-12-20T05:55:50;46.40;;;30.38;;
51298;SDS011;37382;45.192;9.790;2023-12-20T05:58:17;46.42;;;29.27;;
51298;SDS011;37382;45.192;9.790;2023-12-20T06:00:45;45.60;;;28.35;;
51298;SDS011;37382;45.192;9.790;2023-12-20T06:03:12;43.08;;;30.83;;
51298;SDS011;37382;45.192;9.790;2023-12-20T06:05:39;41.67;;;28.38;;
51298;SDS011;37382;45.192;9.790;2023-12-20T06:08:07;40.60;;;28.40;;
51298;SDS011;37382;45.192;9.790;2023-12-20T06:10:34;38.72;;;28.08;;
51298;SDS011;37382;45.192;9.790;2023-12-20T06:13:01;39.80;;;26.80;;
51298;SDS011;37382;45.192;9.790;2023-12-20T06:15:31;38.08;;;26.17;;
51298;SDS011;37382;45.192;9.790;2023-12-20T06:17:58;38.08;;;27.65;;
51298;SDS011;37382;45.192;9.790;2023-12-20T06:20:26;46.08;;;27.77;;
51298;SDS011;37382;45.192;9.790;2023-12-20T06:22:54;39.55;;;26.40;;
51298;SDS011;37382;45.192;9.790;2023-12-20T06:25:21;40.55;;;27.90;;
51298;SDS011;37382;45.192;9.790;2023-12-20T06:27:49;36.92;;;26.85;;
51298;SDS011;37382;45.192;9.790;2023-12-20T06:30:16;44.17;;;29.85;;
51298;SDS011;37382;45.192;9.790;2023-12-20T06:32:44;38.65;;;28.02;;
51298;SDS011;37382;45.192;9.790;2023-12-20T06:35:13;42.88;;;27.27;;
51298;SDS011;37382;45.192;9.790;2023-12-20T06:37:41;41.08;;;27.02;;
51298;SDS011;37382;45.192;9.790;2023-12-20T06:40:10;38.67;;;27.38;;
51298;SDS011;37382;45.192;9.790;2023-12-20T06:42:45;42.63;;;29.90;;
51298;SDS011;37382;45.192;9.790;2023-12-20T06:45:28;49.28;;;31.98;;
51298;SDS011;37382;45.192;9.790;2023-12-20T06:47:55;48.00;;;31.73;;
51298;SDS011;37382;45.192;9.790;2023-12-20T06:50:22;55.13;;;35.55;;
51298;SDS011;37382;45.192;9.790;2023-12-20T06:52:50;51.47;;;34.65;;
51298;SDS011;37382;45.192;9.790;2023-12-20T06:55:17;56.35;;;34.45;;
51298;SDS011;37382;45.192;9.790;2023-12-20T06:57:45;56.10;;;35.33;;
51298;SDS011;37382;45.192;9.790;2023-12-20T07:00:13;50.05;;;34.75;;
51298;SDS011;37382;45.192;9.790;2023-12-20T07:02:41;51.95;;;34.80;;
51298;SDS011;37382;45.192;9.790;2023-12-20T07:05:08;60.13;;;37.03;;
51298;SDS011;37382;45.192;9.790;2023-12-20T07:07:35;55.28;;;36.88;;
51298;SDS011;37382;45.192;9.790;2023-12-20T07:10:03;64.70;;;36.40;;
51298;SDS011;37382;45.192;9.790;2023-12-20T07:12:31;56.42;;;34.38;;
51298;SDS011;37382;45.192;9.790;2023-12-20T07:14:58;57.92;;;35.50;;
51298;SDS011;37382;45.192;9.790;2023-12-20T07:17:26;70.05;;;42.70;;
51298;SDS011;37382;45.192;9.790;2023-12-20T07:19:54;73.00;;;46.22;;
51298;SDS011;37382;45.192;9.790;2023-12-20T07:22:22;59.47;;;34.70;;
51298;SDS011;37382;45.192;9.790;2023-12-20T07:24:49;49.45;;;31.77;;
51298;SDS011;37382;45.192;9.790;2023-12-20T07:27:19;42.15;;;29.23;;
51298;SDS011;37382;45.192;9.790;2023-12-20T07:29:47;41.85;;;28.00;;
51298;SDS011;37382;45.192;9.790;2023-12-20T07:32:14;50.00;;;31.10;;
51298;SDS011;37382;45.192;9.790;2023-12-20T07:34:41;66.15;;;44.78;;
51298;SDS011;37382;45.192;9.790;2023-12-20T07:37:09;99.45;;;66.03;;
51298;SDS011;37382;45.192;9.790;2023-12-20T07:39:40;74.72;;;46.72;;
51298;SDS011;37382;45.192;9.790;2023-12-20T07:42:08;56.63;;;36.97;;
51298;SDS011;37382;45.192;9.790;2023-12-20T07:44:36;54.53;;;34.38;;
51298;SDS011;37382;45.192;9.790;2023-12-20T07:47:03;57.42;;;36.25;;
51298;SDS011;37382;45.192;9.790;2023-12-20T07:49:31;57.78;;;40.03;;
51298;SDS011;37382;45.192;9.790;2023-12-20T07:51:59;61.75;;;40.88;;
51298;SDS011;37382;45.192;9.790;2023-12-20T07:54:27;51.17;;;35.17;;
51298;SDS011;37382;45.192;9.790;2023-12-20T07:56:55;54.92;;;33.95;;
51298;SDS011;37382;45.192;9.790;2023-12-20T07:59:24;50.55;;;33.75;;
51298;SDS011;37382;45.192;9.790;2023-12-20T08:01:59;53.05;;;34.13;;
51298;SDS011;37382;45.192;9.790;2023-12-20T08:04:27;56.78;;;35.35;;
51298;SDS011;37382;45.192;9.790;2023-12-20T08:06:55;53.67;;;35.53;;
51298;SDS011;37382;45.192;9.790;2023-12-20T08:09:22;52.97;;;35.42;;
51298;SDS011;37382;45.192;9.790;2023-12-20T08:11:50;60.92;;;38.17;;
51298;SDS011;37382;45.192;9.790;2023-12-20T08:14:18;61.92;;;37.30;;
51298;SDS011;37382;45.192;9.790;2023-12-20T08:16:45;54.28;;;35.25;;
51298;SDS011;37382;45.192;9.790;2023-12-20T08:19:12;59.97;;;36.10;;
51298;SDS011;37382;45.192;9.790;2023-12-20T08:21:40;54.80;;;34.95;;
51298;SDS011;37382;45.192;9.790;2023-12-20T08:24:08;56.95;;;35.38;;
51298;SDS011;37382;45.192;9.790;2023-12-20T08:26:35;58.70;;;36.35;;
51298;SDS011;37382;45.192;9.790;2023-12-20T08:29:03;54.97;;;34.20;;
51298;SDS011;37382;45.192;9.790;2023-12-20T08:31:31;55.30;;;35.28;;
51298;SDS011;37382;45.192;9.790;2023-12-20T08:33:58;54.30;;;34.30;;
51298;SDS011;37382;45.192;9.790;2023-12-20T08:36:26;52.03;;;33.33;;
51298;SDS011;37382;45.192;9.790;2023-12-20T08:38:53;53.63;;;32.53;;
51298;SDS011;37382;45.192;9.790;2023-12-20T08:41:22;61.08;;;32.50;;
51298;SDS011;37382;45.192;9.790;2023-12-20T08:43:50;49.38;;;31.33;;
51298;SDS011;37382;45.192;9.790;2023-12-20T08:46:18;49.35;;;30.40;;
51298;SDS011;37382;45.192;9.790;2023-12-20T08:48:45;44.85;;;29.40;;
51298;SDS011;37382;45.192;9.790;2023-12-20T08:51:13;50.65;;;29.98;;
51298;SDS011;37382;45.192;9.790;2023-12-20T08:53:41;48.03;;;30.73;;
51298;SDS011;37382;45.192;9.790;2023-12-20T08:56:12;51.55;;;31.65;;
51298;SDS011;37382;45.192;9.790;2023-12-20T08:58:39;58.63;;;31.88;;
51298;SDS011;37382;45.192;9.790;2023-12-20T09:01:07;60.72;;;34.97;;
51298;SDS011;37382;45.192;9.790;2023-12-20T09:03:34;60.60;;;37.60;;
51298;SDS011;37382;45.192;9.790;2023-12-20T09:06:02;58.08;;;34.40;;
51298;SDS011;37382;45.192;9.790;2023-12-20T09:08:29;49.22;;;31.80;;
51298;SDS011;37382;45.192;9.790;2023-12-20T09:10:57;49.15;;;32.70;;
51298;SDS011;37382;45.192;9.790;2023-12-20T09:13:25;52.13;;;32.75;;
51298;SDS011;37382;45.192;9.790;2023-12-20T09:15:56;97.50;;;56.63;;
51298;SDS011;37382;45.192;9.790;2023-12-20T09:18:24;59.10;;;36.38;;
51298;SDS011;37382;45.192;9.790;2023-12-20T09:20:51;49.55;;;31.40;;
51298;SDS011;37382;45.192;9.790;2023-12-20T09:23:19;48.03;;;30.20;;
51298;SDS011;37382;45.192;9.790;2023-12-20T09:25:46;45.35;;;31.35;;
51298;SDS011;37382;45.192;9.790;2023-12-20T09:28:13;50.63;;;30.98;;
51298;SDS011;37382;45.192;9.790;2023-12-20T09:30:41;46.45;;;28.38;;
51298;SDS011;37382;45.192;9.790;2023-12-20T09:33:09;48.05;;;28.52;;
51298;SDS011;37382;45.192;9.790;2023-12-20T09:35:36;41.63;;;27.45;;
51298;SDS011;37382;45.192;9.790;2023-12-20T09:38:04;43.65;;;27.65;;
51298;SDS011;37382;45.192;9.790;2023-12-20T09:40:32;42.70;;;30.00;;
51298;SDS011;37382;45.192;9.790;2023-12-20T09:45:30;40.25;;;24.70;;
51298;SDS011;37382;45.192;9.790;2023-12-20T09:47:58;39.05;;;24.92;;
51298;SDS011;37382;45.192;9.790;2023-12-20T09:50:26;41.35;;;24.10;;
51298;SDS011;37382;45.192;9.790;2023-12-20T09:52:54;37.17;;;21.33;;
51298;SDS011;37382;45.192;9.790;2023-12-20T09:55:26;33.83;;;22.17;;
51298;SDS011;37382;45.192;9.790;2023-12-20T09:57:57;36.92;;;20.83;;
51298;SDS011;37382;45.192;9.790;2023-12-20T10:00:24;44.67;;;24.17;;
51298;SDS011;37382;45.192;9.790;2023-12-20T10:05:27;37.63;;;24.30;;
51298;SDS011;37382;45.192;9.790;2023-12-20T10:07:56;34.28;;;24.05;;
51298;SDS011;37382;45.192;9.790;2023-12-20T10:10:25;42.13;;;23.92;;
51298;SDS011;37382;45.192;9.790;2023-12-20T10:13:09;41.85;;;25.15;;
51298;SDS011;37382;45.192;9.790;2023-12-20T10:15:38;40.05;;;25.27;;
51298;SDS011;37382;45.192;9.790;2023-12-20T10:18:06;45.42;;;26.00;;
51298;SDS011;37382;45.192;9.790;2023-12-20T10:20:34;38.47;;;25.90;;
51298;SDS011;37382;45.192;9.790;2023-12-20T10:23:02;47.78;;;28.35;;
51298;SDS011;37382;45.192;9.790;2023-12-20T10:25:30;45.47;;;27.17;;
51298;SDS011;37382;45.192;9.790;2023-12-20T10:28:12;56.60;;;29.88;;
51298;SDS011;37382;45.192;9.790;2023-12-20T10:30:40;47.85;;;30.10;;
51298;SDS011;37382;45.192;9.790;2023-12-20T10:33:09;48.47;;;28.30;;
51298;SDS011;37382;45.192;9.790;2023-12-20T10:35:38;39.55;;;25.20;;
51298;SDS011;37382;45.192;9.790;2023-12-20T10:38:12;42.60;;;26.88;;
51298;SDS011;37382;45.192;9.790;2023-12-20T10:40:43;57.83;;;28.07;;
51298;SDS011;37382;45.192;9.790;2023-12-20T10:43:12;40.83;;;29.33;;
51298;SDS011;37382;45.192;9.790;2023-12-20T10:45:41;52.05;;;28.95;;
51298;SDS011;37382;45.192;9.790;2023-12-20T10:48:10;51.40;;;26.27;;
51298;SDS011;37382;45.192;9.790;2023-12-20T10:50:39;38.35;;;24.67;;
51298;SDS011;37382;45.192;9.790;2023-12-20T10:53:08;41.65;;;25.38;;
51298;SDS011;37382;45.192;9.790;2023-12-20T10:55:35;40.85;;;24.05;;
51298;SDS011;37382;45.192;9.790;2023-12-20T10:58:06;38.55;;;23.73;;
51298;SDS011;37382;45.192;9.790;2023-12-20T11:00:39;35.10;;;22.67;;
51298;SDS011;37382;45.192;9.790;2023-12-20T11:03:11;34.05;;;21.95;;
51298;SDS011;37382;45.192;9.790;2023-12-20T11:05:45;38.63;;;20.73;;
51298;SDS011;37382;45.192;9.790;2023-12-20T11:11:24;36.47;;;21.67;;
51298;SDS011;37382;45.192;9.790;2023-12-20T11:16:31;29.60;;;21.48;;
51298;SDS011;37382;45.192;9.790;2023-12-20T11:19:14;40.30;;;25.00;;
51298;SDS011;37382;45.192;9.790;2023-12-20T11:21:42;43.97;;;27.70;;
51298;SDS011;37382;45.192;9.790;2023-12-20T11:24:09;41.80;;;26.98;;
51298;SDS011;37382;45.192;9.790;2023-12-20T11:26:37;41.83;;;27.85;;
51298;SDS011;37382;45.192;9.790;2023-12-20T11:31:59;34.22;;;22.50;;
51298;SDS011;37382;45.192;9.790;2023-12-20T11:34:32;38.97;;;24.08;;
51298;SDS011;37382;45.192;9.790;2023-12-20T11:37:01;34.72;;;22.35;;
51298;SDS011;37382;45.192;9.790;2023-12-20T11:39:29;40.88;;;24.63;;
51298;SDS011;37382;45.192;9.790;2023-12-20T11:42:03;38.58;;;22.27;;
51298;SDS011;37382;45.192;9.790;2023-12-20T11:44:32;34.65;;;21.27;;
51298;SDS011;37382;45.192;9.790;2023-12-20T11:47:00;35.10;;;21.60;;
51298;SDS011;37382;45.192;9.790;2023-12-20T11:49:27;31.90;;;20.70;;
51298;SDS011;37382;45.192;9.790;2023-12-20T11:51:57;32.67;;;19.77;;
51298;SDS011;37382;45.192;9.790;2023-12-20T11:54:27;30.08;;;19.73;;
51298;SDS011;37382;45.192;9.790;2023-12-20T11:56:54;31.13;;;19.45;;
51298;SDS011;37382;45.192;9.790;2023-12-20T11:59:22;35.35;;;19.73;;
51298;SDS011;37382;45.192;9.790;2023-12-20T12:01:50;35.22;;;19.60;;
51298;SDS011;37382;45.192;9.790;2023-12-20T12:04:18;32.38;;;20.35;;
51298;SDS011;37382;45.192;9.790;2023-12-20T12:06:46;34.35;;;20.70;;
51298;SDS011;37382;45.192;9.790;2023-12-20T12:09:14;33.70;;;21.50;;
51298;SDS011;37382;45.192;9.790;2023-12-20T12:11:42;33.08;;;21.45;;
51298;SDS011;37382;45.192;9.790;2023-12-20T12:14:10;32.03;;;22.40;;
51298;SDS011;37382;45.192;9.790;2023-12-20T12:16:38;31.42;;;21.23;;
51298;SDS011;37382;45.192;9.790;2023-12-20T12:19:06;31.17;;;22.25;;
51298;SDS011;37382;45.192;9.790;2023-12-20T12:21:34;37.10;;;23.80;;
51298;SDS011;37382;45.192;9.790;2023-12-20T12:24:08;32.40;;;24.13;;
51298;SDS011;37382;45.192;9.790;2023-12-20T12:26:37;37.20;;;23.05;;
51298;SDS011;37382;45.192;9.790;2023-12-20T12:29:07;30.30;;;21.52;;
51298;SDS011;37382;45.192;9.790;2023-12-20T12:31:35;40.90;;;23.17;;
51298;SDS011;37382;45.192;9.790;2023-12-20T12:34:02;43.92;;;24.73;;
51298;SDS011;37382;45.192;9.790;2023-12-20T12:36:30;38.88;;;24.20;;
51298;SDS011;37382;45.192;9.790;2023-12-20T12:38:58;40.53;;;23.77;;
51298;SDS011;37382;45.192;9.790;2023-12-20T12:41:29;35.70;;;24.13;;
51298;SDS011;37382;45.192;9.790;2023-12-20T12:43:56;30.73;;;21.92;;
51298;SDS011;37382;45.192;9.790;2023-12-20T12:46:31;30.67;;;20.63;;
51298;SDS011;37382;45.192;9.790;2023-12-20T12:48:59;31.23;;;20.05;;
51298;SDS011;37382;45.192;9.790;2023-12-20T12:51:27;31.40;;;21.70;;
51298;SDS011;37382;45.192;9.790;2023-12-20T12:53:55;36.25;;;23.20;;
51298;SDS011;37382;45.192;9.790;2023-12-20T12:56:22;34.58;;;26.27;;
51298;SDS011;37382;45.192;9.790;2023-12-20T12:58:50;35.15;;;23.35;;
51298;SDS011;37382;45.192;9.790;2023-12-20T13:01:17;36.80;;;23.20;;
51298;SDS011;37382;45.192;9.790;2023-12-20T13:03:45;33.70;;;25.27;;
51298;SDS011;37382;45.192;9.790;2023-12-20T13:06:12;37.53;;;25.73;;
51298;SDS011;37382;45.192;9.790;2023-12-20T13:08:40;47.50;;;26.67;;
51298;SDS011;37382;45.192;9.790;2023-12-20T13:11:08;46.10;;;30.95;;
51298;SDS011;37382;45.192;9.790;2023-12-20T13:13:36;39.30;;;26.75;;
51298;SDS011;37382;45.192;9.790;2023-12-20T13:16:03;53.75;;;35.20;;
51298;SDS011;37382;45.192;9.790;2023-12-20T13:18:31;63.63;;;41.13;;
51298;SDS011;37382;45.192;9.790;2023-12-20T13:20:59;67.68;;;42.50;;
51298;SDS011;37382;45.192;9.790;2023-12-20T13:23:27;61.35;;;38.47;;
51298;SDS011;37382;45.192;9.790;2023-12-20T13:25:55;56.53;;;34.15;;
51298;SDS011;37382;45.192;9.790;2023-12-20T13:28:22;41.15;;;30.17;;
51298;SDS011;37382;45.192;9.790;2023-12-20T13:30:49;43.33;;;29.35;;
51298;SDS011;37382;45.192;9.790;2023-12-20T13:33:17;50.53;;;30.27;;
51298;SDS011;37382;45.192;9.790;2023-12-20T13:35:46;44.25;;;29.00;;
51298;SDS011;37382;45.192;9.790;2023-12-20T13:38:13;42.47;;;28.13;;
51298;SDS011;37382;45.192;9.790;2023-12-20T13:40:41;54.97;;;30.08;;
51298;SDS011;37382;45.192;9.790;2023-12-20T13:43:09;48.10;;;29.23;;
51298;SDS011;37382;45.192;9.790;2023-12-20T13:45:39;52.53;;;31.30;;
51298;SDS011;37382;45.192;9.790;2023-12-20T13:48:06;53.53;;;30.92;;
51298;SDS011;37382;45.192;9.790;2023-12-20T13:50:34;55.55;;;32.63;;
51298;SDS011;37382;45.192;9.790;2023-12-20T13:53:01;49.95;;;30.40;;
51298;SDS011;37382;45.192;9.790;2023-12-20T13:55:31;61.92;;;38.13;;
51298;SDS011;37382;45.192;9.790;2023-12-20T13:57:58;50.42;;;32.63;;
51298;SDS011;37382;45.192;9.790;2023-12-20T14:00:26;52.30;;;31.52;;
51298;SDS011;37382;45.192;9.790;2023-12-20T14:02:54;49.60;;;32.22;;
51298;SDS011;37382;45.192;9.790;2023-12-20T14:05:21;49.97;;;33.80;;
51298;SDS011;37382;45.192;9.790;2023-12-20T14:07:55;52.50;;;32.83;;
51298;SDS011;37382;45.192;9.790;2023-12-20T14:10:24;52.30;;;36.22;;
51298;SDS011;37382;45.192;9.790;2023-12-20T14:12:54;62.80;;;38.22;;
51298;SDS011;37382;45.192;9.790;2023-12-20T14:15:22;50.90;;;37.70;;
51298;SDS011;37382;45.192;9.790;2023-12-20T14:17:52;69.13;;;41.75;;
51298;SDS011;37382;45.192;9.790;2023-12-20T14:20:20;79.45;;;46.78;;
51298;SDS011;37382;45.192;9.790;2023-12-20T14:22:48;64.10;;;41.85;;
51298;SDS011;37382;45.192;9.790;2023-12-20T14:25:15;56.67;;;39.45;;
51298;SDS011;37382;45.192;9.790;2023-12-20T14:27:43;56.90;;;36.88;;
51298;SDS011;37382;45.192;9.790;2023-12-20T14:30:12;73.10;;;42.00;;
51298;SDS011;37382;45.192;9.790;2023-12-20T14:32:42;74.97;;;46.15;;
51298;SDS011;37382;45.192;9.790;2023-12-20T14:35:09;72.25;;;44.83;;
51298;SDS011;37382;45.192;9.790;2023-12-20T14:37:37;62.40;;;37.17;;
51298;SDS011;37382;45.192;9.790;2023-12-20T14:40:08;51.58;;;32.85;;
51298;SDS011;37382;45.192;9.790;2023-12-20T14:42:42;51.22;;;36.13;;
51298;SDS011;37382;45.192;9.790;2023-12-20T14:45:10;60.78;;;38.47;;